Time;durP1;ratioP1;P1;durP2;ratioP2;P2;SDS_P1;SDS_P2;PMS_P1;PMS_P2;Temp;Humidity;BMP_temperature;BMP_pressure;BME280_temperature;BME280_humidity;BME280_pressure;Samples;Min_cycle;Max_cycle;Signal;HPM_P1;HPM_P2
2023/07/10 00:01:15;;;;;;;15.63;3.22;;;18.50;99.90;;;;;;5028290;28;20053;-60
2023/07/10 00:03:41;;;;;;;12.73;3.03;;;18.40;99.90;;;;;;5007648;28;20041;-60
2023/07/10 00:06:12;;;;;;;13.30;2.53;;;18.40;99.90;;;;;;5036819;28;20483;-60
2023/07/10 00:08:39;;;;;;;16.20;3.30;;;18.50;99.90;;;;;;5023804;28;20508;-59
2023/07/10 00:11:20;;;;;;;14.57;3.63;;;18.50;99.90;;;;;;5043072;28;20056;-60
2023/07/10 00:13:46;;;;;;;12.57;3.22;;;18.50;99.90;;;;;;5005701;28;20056;-60
2023/07/10 00:16:16;;;;;;;17.25;3.50;;;18.50;99.90;;;;;;5038574;28;20054;-60
2023/07/10 00:18:43;;;;;;;12.55;3.22;;;18.50;99.90;;;;;;5040913;28;20045;-60
2023/07/10 00:21:10;;;;;;;8.45;2.45;;;18.50;99.90;;;;;;5040113;28;20055;-60
2023/07/10 00:23:37;;;;;;;16.40;3.15;;;18.40;99.90;;;;;;5023303;28;20041;-60
2023/07/10 00:26:23;;;;;;;17.27;3.28;;;18.50;99.90;;;;;;5041352;28;20053;-60
2023/07/10 00:28:51;;;;;;;13.18;3.25;;;18.60;99.90;;;;;;5021591;28;20049;-59
2023/07/10 00:31:18;;;;;;;17.35;4.22;;;18.50;99.90;;;;;;5021356;28;20534;-60
2023/07/10 00:33:48;;;;;;;15.00;3.15;;;18.40;99.90;;;;;;5036365;28;20092;-60
2023/07/10 00:36:29;;;;;;;11.75;2.33;;;18.40;99.90;;;;;;5038456;28;20055;-60
2023/07/10 00:38:57;;;;;;;17.70;3.05;;;18.40;99.90;;;;;;5041040;28;20041;-60
2023/07/10 00:41:24;;;;;;;18.52;3.20;;;18.20;99.90;;;;;;5029129;28;20049;-59
2023/07/10 00:43:56;;;;;;;10.50;3.40;;;18.20;99.90;;;;;;5009584;28;20119;-60
2023/07/10 00:46:45;;;;;;;11.60;2.33;;;18.20;99.90;;;;;;5010535;28;20326;-60
2023/07/10 00:49:46;;;;;;;7.78;2.78;;;18.00;99.90;;;;;;5022367;28;20057;-61
2023/07/10 00:52:17;;;;;;;11.27;2.95;;;18.00;99.90;;;;;;4649829;28;10000965;-59
2023/07/10 00:54:47;;;;;;;15.45;3.20;;;17.90;99.90;;;;;;5028765;28;20053;-59
2023/07/10 00:57:16;;;;;;;14.68;3.50;;;17.90;99.90;;;;;;5031312;28;20052;-61
2023/07/10 00:59:43;;;;;;;16.10;3.42;;;17.80;99.90;;;;;;5007184;28;20296;-59
2023/07/10 01:02:13;;;;;;;10.40;2.80;;;17.80;99.90;;;;;;5006875;28;20045;-59
2023/07/10 01:04:41;;;;;;;12.38;2.72;;;17.80;99.90;;;;;;5036079;28;20045;-59
2023/07/10 01:07:08;;;;;;;9.90;2.75;;;17.70;99.90;;;;;;5037525;28;20045;-60
2023/07/10 01:09:35;;;;;;;13.20;2.90;;;17.60;99.90;;;;;;5025884;28;20049;-60
2023/07/10 01:12:03;;;;;;;12.05;3.05;;;17.60;99.90;;;;;;5023767;28;20053;-59
2023/07/10 01:14:34;;;;;;;7.10;2.60;;;17.50;99.90;;;;;;5032523;28;20072;-60
2023/07/10 01:17:02;;;;;;;12.15;2.83;;;17.50;99.90;;;;;;5019995;28;20045;-59
2023/07/10 01:19:29;;;;;;;16.38;3.17;;;17.50;99.90;;;;;;5046097;28;20477;-59
2023/07/10 01:21:56;;;;;;;8.30;2.40;;;17.50;99.90;;;;;;5023669;28;20052;-59
2023/07/10 01:24:23;;;;;;;16.67;3.35;;;17.40;99.90;;;;;;5032462;28;20052;-59
2023/07/10 01:26:50;;;;;;;11.15;2.75;;;17.50;99.90;;;;;;5036426;28;20055;-60
2023/07/10 01:29:41;;;;;;;7.97;2.40;;;17.50;99.90;;;;;;5044170;28;20546;-59
2023/07/10 01:32:13;;;;;;;7.72;2.22;;;17.50;99.90;;;;;;5042646;28;20091;-59
2023/07/10 01:34:45;;;;;;;13.55;2.38;;;17.40;99.90;;;;;;5028552;28;20041;-59
2023/07/10 01:37:12;;;;;;;18.52;3.03;;;17.30;99.90;;;;;;5008339;28;20044;-59
2023/07/10 01:39:46;;;;;;;9.30;2.60;;;17.30;99.90;;;;;;5033061;28;20056;-60
2023/07/10 01:42:13;;;;;;;13.18;3.00;;;17.30;99.90;;;;;;5037098;28;20042;-59
2023/07/10 01:44:41;;;;;;;18.25;3.70;;;17.20;99.90;;;;;;5043742;28;20045;-59
2023/07/10 01:47:09;;;;;;;13.45;3.42;;;17.30;99.90;;;;;;5038698;28;20045;-59
2023/07/10 01:49:40;;;;;;;11.48;2.80;;;17.30;99.90;;;;;;5031314;28;20068;-59
2023/07/10 01:52:08;;;;;;;11.68;3.38;;;17.30;99.90;;;;;;5040268;28;20118;-59
2023/07/10 01:54:35;;;;;;;10.55;2.88;;;17.30;99.90;;;;;;5036196;28;20554;-59
2023/07/10 01:57:03;;;;;;;12.43;3.17;;;17.20;99.90;;;;;;5038103;28;20060;-59
2023/07/10 01:59:29;;;;;;;11.32;2.65;;;17.10;99.90;;;;;;5038954;28;20045;-59
2023/07/10 02:01:56;;;;;;;17.05;3.45;;;17.20;99.90;;;;;;5038472;28;20044;-57
2023/07/10 02:04:24;;;;;;;14.98;3.60;;;17.20;99.90;;;;;;5039443;28;20149;-58
2023/07/10 02:06:54;;;;;;;14.43;3.00;;;17.20;99.90;;;;;;5034261;28;20053;-59
2023/07/10 02:09:24;;;;;;;12.60;3.22;;;17.10;99.90;;;;;;5036988;28;20488;-61
2023/07/10 02:11:52;;;;;;;12.27;2.70;;;17.10;99.90;;;;;;5012887;28;20045;-61
2023/07/10 02:14:19;;;;;;;12.20;3.20;;;17.00;99.90;;;;;;5035830;28;20045;-61
2023/07/10 02:16:46;;;;;;;9.15;2.28;;;17.00;99.90;;;;;;5042548;28;20507;-61
2023/07/10 02:19:13;;;;;;;13.77;3.30;;;17.00;99.90;;;;;;5031691;28;20050;-60
2023/07/10 02:21:40;;;;;;;13.23;2.88;;;17.00;99.90;;;;;;5043767;28;20504;-61
2023/07/10 02:24:07;;;;;;;25.33;4.25;;;16.90;99.90;;;;;;5039291;28;20056;-61
2023/07/10 02:26:34;;;;;;;15.80;3.03;;;16.90;99.90;;;;;;5030380;28;20052;-61
2023/07/10 02:29:00;;;;;;;13.35;3.28;;;16.90;99.90;;;;;;5042837;28;20074;-61
2023/07/10 02:31:27;;;;;;;9.95;2.55;;;16.90;99.90;;;;;;5020207;28;20114;-62
2023/07/10 02:33:54;;;;;;;12.15;3.42;;;16.90;99.90;;;;;;5038561;28;20124;-61
2023/07/10 02:36:22;;;;;;;14.25;3.47;;;16.90;99.90;;;;;;5040877;28;20056;-61
2023/07/10 02:38:48;;;;;;;9.70;2.50;;;16.80;99.90;;;;;;5038329;28;20079;-61
2023/07/10 02:41:15;;;;;;;13.57;4.72;;;16.80;99.90;;;;;;5034421;28;20057;-61
2023/07/10 02:43:42;;;;;;;12.27;3.00;;;16.80;99.90;;;;;;5035299;28;20048;-61
2023/07/10 02:46:09;;;;;;;15.85;3.45;;;16.70;99.90;;;;;;5036615;28;20488;-61
2023/07/10 02:48:36;;;;;;;14.40;2.25;;;16.70;99.90;;;;;;5037203;28;20055;-60
2023/07/10 02:51:02;;;;;;;11.65;2.85;;;16.60;99.90;;;;;;5035754;28;20045;-61
2023/07/10 02:53:30;;;;;;;11.55;3.08;;;16.60;99.90;;;;;;5038816;28;20053;-61
2023/07/10 02:55:56;;;;;;;10.18;2.83;;;16.50;99.90;;;;;;5034577;28;20128;-60
2023/07/10 02:58:23;;;;;;;9.43;3.38;;;16.50;99.90;;;;;;5041773;28;20052;-61
2023/07/10 03:00:57;;;;;;;17.58;3.80;;;16.60;99.90;;;;;;5034186;28;20045;-60
2023/07/10 03:03:25;;;;;;;11.52;3.17;;;16.50;99.90;;;;;;5029848;28;20053;-61
2023/07/10 03:05:56;;;;;;;10.23;3.63;;;16.50;99.90;;;;;;5045935;28;20472;-60
2023/07/10 03:08:22;;;;;;;16.20;3.00;;;16.50;99.90;;;;;;5047495;28;20051;-60
2023/07/10 03:11:00;;;;;;;9.43;3.35;;;16.50;99.90;;;;;;5044047;28;20055;-60
2023/07/10 03:13:27;;;;;;;9.07;2.90;;;16.40;99.90;;;;;;5034137;28;20048;-60
2023/07/10 03:16:08;;;;;;;14.77;2.95;;;16.40;99.90;;;;;;5049599;28;20049;-59
2023/07/10 03:18:36;;;;;;;12.75;2.90;;;16.40;99.90;;;;;;5034065;28;20234;-60
2023/07/10 03:21:03;;;;;;;18.33;5.10;;;16.30;99.90;;;;;;5042685;28;20045;-60
2023/07/10 03:23:30;;;;;;;14.27;3.17;;;16.30;99.90;;;;;;5016251;28;20168;-60
2023/07/10 03:25:57;;;;;;;11.55;3.10;;;16.30;99.90;;;;;;5040892;28;20048;-60
2023/07/10 03:28:23;;;;;;;14.60;3.53;;;16.40;99.90;;;;;;5049415;28;20051;-60
2023/07/10 03:30:50;;;;;;;17.20;3.05;;;16.40;99.90;;;;;;5039088;28;20049;-61
2023/07/10 03:33:19;;;;;;;14.95;3.78;;;16.40;99.90;;;;;;5046002;28;20045;-59
2023/07/10 03:35:49;;;;;;;11.45;3.92;;;16.40;99.90;;;;;;5039602;28;20068;-59
2023/07/10 03:38:16;;;;;;;11.82;2.85;;;16.30;99.90;;;;;;5044943;28;20088;-59
2023/07/10 03:40:53;;;;;;;13.45;3.50;;;16.40;99.90;;;;;;5021700;28;20171;-59
2023/07/10 03:43:20;;;;;;;12.60;3.15;;;16.30;99.90;;;;;;5046879;28;20061;-59
2023/07/10 03:45:47;;;;;;;13.82;3.13;;;16.30;99.90;;;;;;5024242;28;20059;-59
2023/07/10 03:48:14;;;;;;;10.75;3.08;;;16.20;99.90;;;;;;5041517;28;20565;-59
2023/07/10 03:50:41;;;;;;;19.83;3.47;;;16.30;99.90;;;;;;5038261;28;20124;-60
2023/07/10 03:53:07;;;;;;;11.65;3.28;;;16.30;99.90;;;;;;5041717;28;20270;-61
2023/07/10 03:55:34;;;;;;;18.50;3.65;;;16.30;99.90;;;;;;5040637;28;20053;-59
2023/07/10 03:58:01;;;;;;;15.88;3.35;;;16.30;99.90;;;;;;5039352;28;20176;-59
2023/07/10 04:00:28;;;;;;;8.32;2.50;;;16.20;99.90;;;;;;5043377;28;20044;-60
2023/07/10 04:02:55;;;;;;;19.25;3.83;;;16.20;99.90;;;;;;5048258;28;20284;-60
2023/07/10 04:05:22;;;;;;;11.82;3.67;;;16.20;99.90;;;;;;5043234;28;20049;-60
2023/07/10 04:07:48;;;;;;;11.13;2.65;;;16.20;99.90;;;;;;5044445;28;20053;-60
2023/07/10 04:10:15;;;;;;;11.68;3.70;;;16.20;99.90;;;;;;5033768;28;20050;-60
2023/07/10 04:12:42;;;;;;;11.50;2.80;;;16.10;99.90;;;;;;5038047;28;20103;-60
2023/07/10 04:15:09;;;;;;;17.35;3.70;;;16.10;99.90;;;;;;5045988;28;20103;-60
2023/07/10 04:17:36;;;;;;;12.15;3.00;;;16.10;99.90;;;;;;5042030;28;20156;-59
2023/07/10 04:20:04;;;;;;;9.48;2.63;;;16.10;99.90;;;;;;5016547;28;20049;-59
2023/07/10 04:22:31;;;;;;;10.98;3.00;;;16.10;99.90;;;;;;5040959;28;20067;-59
2023/07/10 04:25:04;;;;;;;10.40;3.58;;;16.10;99.90;;;;;;5039567;28;20095;-59
2023/07/10 04:27:34;;;;;;;22.40;4.32;;;16.00;99.90;;;;;;5039256;28;20121;-59
2023/07/10 04:30:00;;;;;;;7.88;2.20;;;16.00;99.90;;;;;;5044274;28;20067;-59
2023/07/10 04:32:27;;;;;;;8.40;2.22;;;15.90;99.90;;;;;;5028817;28;20093;-60
2023/07/10 04:34:54;;;;;;;16.42;2.88;;;15.90;99.90;;;;;;5036154;28;20049;-59
2023/07/10 04:37:21;;;;;;;10.20;2.03;;;15.80;99.90;;;;;;5022935;28;20056;-60
2023/07/10 04:39:51;;;;;;;13.25;2.78;;;15.80;99.90;;;;;;5036791;28;20049;-60
2023/07/10 04:42:18;;;;;;;10.68;2.30;;;15.80;99.90;;;;;;5038452;28;20056;-60
2023/07/10 04:44:45;;;;;;;16.90;3.35;;;15.80;99.90;;;;;;5037556;28;20056;-60
2023/07/10 04:47:11;;;;;;;12.00;3.25;;;15.80;99.90;;;;;;5037447;28;20045;-60
2023/07/10 04:49:41;;;;;;;13.20;3.50;;;15.80;99.90;;;;;;5038271;28;20621;-60
2023/07/10 04:52:08;;;;;;;17.30;3.42;;;15.80;99.90;;;;;;5042495;28;20049;-60
2023/07/10 04:54:35;;;;;;;15.18;3.67;;;15.90;99.90;;;;;;5041674;28;20046;-60
2023/07/10 04:57:01;;;;;;;9.63;3.22;;;15.90;99.90;;;;;;5032977;28;20111;-60
2023/07/10 04:59:28;;;;;;;10.02;2.90;;;16.00;99.90;;;;;;5036932;28;20091;-61
2023/07/10 05:01:55;;;;;;;10.20;3.00;;;15.90;99.90;;;;;;5045723;28;20045;-60
2023/07/10 05:04:22;;;;;;;12.25;3.08;;;15.90;99.90;;;;;;5041399;28;20132;-60
2023/07/10 05:06:51;;;;;;;14.23;3.22;;;16.00;99.90;;;;;;5031606;28;20505;-60
2023/07/10 05:09:18;;;;;;;30.50;3.83;;;16.10;99.90;;;;;;5044776;28;20041;-60
2023/07/10 05:11:45;;;;;;;11.38;3.42;;;16.10;99.90;;;;;;5033243;28;20473;-60
2023/07/10 05:14:12;;;;;;;18.52;3.80;;;16.20;99.90;;;;;;5039715;28;20221;-60
2023/07/10 05:16:39;;;;;;;12.15;3.50;;;16.20;99.90;;;;;;5034473;28;20049;-61
2023/07/10 05:19:06;;;;;;;14.15;3.72;;;16.30;99.90;;;;;;5037892;28;20497;-60
2023/07/10 05:21:33;;;;;;;11.43;3.45;;;16.30;99.90;;;;;;5041374;28;20052;-60
2023/07/10 05:23:59;;;;;;;11.43;2.95;;;16.30;99.90;;;;;;5040301;28;20051;-60
2023/07/10 05:26:26;;;;;;;13.02;3.50;;;16.30;99.90;;;;;;5031907;28;20049;-60
2023/07/10 05:28:53;;;;;;;15.68;3.33;;;16.30;99.90;;;;;;5034892;28;20238;-60
2023/07/10 05:31:20;;;;;;;16.17;3.35;;;16.40;99.90;;;;;;5045758;28;20709;-60
2023/07/10 05:33:47;;;;;;;15.55;3.15;;;16.40;99.90;;;;;;5023631;28;20056;-60
2023/07/10 05:36:14;;;;;;;14.45;3.03;;;16.50;99.90;;;;;;5037406;28;20517;-60
2023/07/10 05:38:41;;;;;;;16.23;3.60;;;16.40;99.90;;;;;;5041638;28;20045;-60
2023/07/10 05:41:08;;;;;;;18.42;3.40;;;16.50;99.90;;;;;;5039186;28;20041;-60
2023/07/10 05:43:35;;;;;;;10.32;2.03;;;16.60;99.90;;;;;;5041298;28;20064;-60
2023/07/10 05:46:02;;;;;;;18.60;3.03;;;16.60;99.90;;;;;;5042500;28;20574;-60
2023/07/10 05:48:30;;;;;;;13.93;2.28;;;16.70;99.90;;;;;;5033296;28;20128;-60
2023/07/10 05:50:57;;;;;;;11.98;2.58;;;16.80;99.90;;;;;;5040736;28;20045;-60
2023/07/10 05:53:24;;;;;;;10.15;2.40;;;16.80;99.90;;;;;;5031932;28;20111;-60
2023/07/10 05:55:52;;;;;;;8.50;2.50;;;16.90;99.90;;;;;;5045314;28;20053;-60
2023/07/10 05:58:20;;;;;;;14.93;3.88;;;16.80;99.90;;;;;;5032141;28;20479;-58
2023/07/10 06:00:48;;;;;;;12.88;2.58;;;16.80;99.90;;;;;;5034039;28;20041;-59
2023/07/10 06:03:15;;;;;;;16.67;3.00;;;16.80;99.90;;;;;;5043333;28;20056;-59
2023/07/10 06:05:42;;;;;;;17.23;4.82;;;16.90;99.90;;;;;;5037053;28;20356;-60
2023/07/10 06:08:10;;;;;;;19.02;3.45;;;16.80;99.90;;;;;;5038503;28;20060;-60
2023/07/10 06:10:37;;;;;;;13.30;2.20;;;16.90;99.90;;;;;;5040210;28;20484;-60
2023/07/10 06:13:04;;;;;;;15.63;2.83;;;17.00;99.90;;;;;;5041455;28;20049;-60
2023/07/10 06:15:31;;;;;;;12.52;3.28;;;16.90;99.90;;;;;;5037777;28;20044;-61
2023/07/10 06:17:58;;;;;;;18.15;2.83;;;17.00;99.90;;;;;;5038776;28;20072;-61
2023/07/10 06:20:26;;;;;;;11.45;2.40;;;17.00;99.90;;;;;;5035905;28;20055;-61
2023/07/10 06:22:53;;;;;;;14.32;2.83;;;17.10;99.90;;;;;;5013970;28;20053;-61
2023/07/10 06:25:25;;;;;;;16.50;3.60;;;17.10;99.90;;;;;;4876730;28;10001112;-62
2023/07/10 06:27:52;;;;;;;17.08;2.20;;;17.10;99.90;;;;;;5017983;28;20336;-60
2023/07/10 06:30:19;;;;;;;14.23;2.55;;;17.20;99.90;;;;;;5029280;28;20045;-58
2023/07/10 06:32:46;;;;;;;11.48;2.63;;;17.30;99.90;;;;;;5040512;28;20487;-58
2023/07/10 06:35:14;;;;;;;13.30;1.77;;;17.40;99.90;;;;;;5030875;28;20140;-59
2023/07/10 06:37:41;;;;;;;11.77;1.90;;;17.50;99.90;;;;;;5029293;28;20512;-60
2023/07/10 06:40:13;;;;;;;10.20;1.83;;;17.60;99.90;;;;;;5043765;28;20041;-59
2023/07/10 06:42:41;;;;;;;7.38;1.90;;;17.60;99.90;;;;;;5031028;28;20131;-59
2023/07/10 06:45:09;;;;;;;11.73;2.05;;;17.80;99.90;;;;;;5042879;28;20045;-59
2023/07/10 06:47:42;;;;;;;11.85;1.52;;;17.90;99.90;;;;;;5029054;28;20088;-61
2023/07/10 06:50:10;;;;;;;8.85;1.67;;;18.00;99.90;;;;;;5026467;28;20045;-61
2023/07/10 06:52:38;;;;;;;6.72;1.73;;;18.00;99.90;;;;;;5034632;28;20484;-60
2023/07/10 06:55:07;;;;;;;9.90;1.92;;;18.10;99.90;;;;;;5041687;28;20049;-60
2023/07/10 06:57:34;;;;;;;5.82;1.30;;;18.20;99.90;;;;;;5035483;28;20195;-60
2023/07/10 07:00:03;;;;;;;11.27;1.88;;;18.10;99.90;;;;;;5041514;28;20048;-60
2023/07/10 07:02:30;;;;;;;7.30;2.10;;;18.20;99.90;;;;;;5031775;28;20110;-60
2023/07/10 07:04:57;;;;;;;5.55;1.52;;;18.20;99.90;;;;;;5032148;28;20053;-58
2023/07/10 07:07:24;;;;;;;14.73;1.70;;;18.30;99.90;;;;;;5015888;28;20041;-61
2023/07/10 07:09:51;;;;;;;8.38;1.30;;;18.40;99.90;;;;;;5026076;28;20072;-61
2023/07/10 07:12:18;;;;;;;16.98;1.77;;;18.50;99.90;;;;;;5037788;28;20104;-60
2023/07/10 07:14:44;;;;;;;9.30;1.58;;;18.60;99.90;;;;;;5035769;28;20106;-60
2023/07/10 07:17:12;;;;;;;8.93;1.70;;;18.60;99.90;;;;;;5039374;28;20049;-61
2023/07/10 07:19:39;;;;;;;11.40;2.65;;;18.70;99.90;;;;;;5034923;28;20322;-59
2023/07/10 07:22:06;;;;;;;9.98;1.65;;;18.70;99.90;;;;;;5039340;28;20052;-60
2023/07/10 07:24:33;;;;;;;10.27;2.03;;;18.70;99.90;;;;;;5032215;28;20056;-59
2023/07/10 07:26:59;;;;;;;6.65;1.52;;;18.80;99.90;;;;;;5037887;28;20064;-59
2023/07/10 07:29:27;;;;;;;7.60;1.42;;;18.90;99.90;;;;;;5027953;28;20078;-58
2023/07/10 07:31:54;;;;;;;4.88;1.70;;;19.00;99.90;;;;;;5033982;28;20037;-59
2023/07/10 07:34:21;;;;;;;5.68;1.35;;;19.10;99.90;;;;;;5038505;28;20179;-60
2023/07/10 07:36:52;;;;;;;11.05;1.65;;;19.20;99.90;;;;;;5032434;28;20528;-60
2023/07/10 07:39:27;;;;;;;12.38;1.40;;;19.20;99.90;;;;;;5037912;28;20056;-60
2023/07/10 07:41:54;;;;;;;6.18;2.22;;;19.30;99.90;;;;;;5024835;28;20045;-60
2023/07/10 07:44:21;;;;;;;9.63;1.58;;;19.30;99.90;;;;;;5032067;28;20119;-60
2023/07/10 07:46:48;;;;;;;9.55;1.85;;;19.30;99.90;;;;;;5037917;28;20075;-60
2023/07/10 07:49:15;;;;;;;9.90;2.10;;;19.40;99.90;;;;;;5037459;28;20057;-60
2023/07/10 07:51:42;;;;;;;11.45;2.25;;;19.50;99.90;;;;;;5034880;28;20049;-60
2023/07/10 07:54:11;;;;;;;6.15;2.17;;;19.60;99.90;;;;;;5038144;28;20045;-58
2023/07/10 07:56:38;;;;;;;7.40;1.50;;;19.60;99.90;;;;;;5039503;28;20060;-60
2023/07/10 07:59:05;;;;;;;6.45;1.48;;;19.70;99.90;;;;;;5037750;28;20056;-60
2023/07/10 08:01:32;;;;;;;8.00;1.73;;;19.80;99.90;;;;;;5040263;28;20052;-60
2023/07/10 08:03:59;;;;;;;5.10;1.52;;;19.80;99.90;;;;;;5038429;28;20729;-60
2023/07/10 08:06:30;;;;;;;14.38;3.33;;;19.90;99.90;;;;;;5036524;28;20106;-60
2023/07/10 08:08:58;;;;;;;6.65;1.40;;;19.90;99.90;;;;;;5040130;28;20573;-59
2023/07/10 08:11:25;;;;;;;8.75;1.30;;;19.90;99.90;;;;;;5027354;28;20060;-60
2023/07/10 08:13:51;;;;;;;12.23;2.80;;;19.90;99.90;;;;;;5045477;28;20053;-60
2023/07/10 08:16:18;;;;;;;8.90;1.60;;;19.90;99.90;;;;;;5031453;28;20132;-58
2023/07/10 08:18:45;;;;;;;10.10;1.50;;;20.00;99.90;;;;;;5032244;28;20471;-60
2023/07/10 08:21:13;;;;;;;8.85;1.45;;;20.00;99.90;;;;;;5035997;28;20053;-61
2023/07/10 08:23:43;;;;;;;5.95;1.45;;;20.10;99.90;;;;;;5014644;28;20052;-60
2023/07/10 08:26:10;;;;;;;8.07;1.73;;;20.00;99.90;;;;;;5038447;28;20043;-60
2023/07/10 08:28:37;;;;;;;7.95;1.75;;;20.10;99.90;;;;;;5032232;28;20053;-60
2023/07/10 08:31:04;;;;;;;12.73;2.15;;;20.30;99.90;;;;;;5034982;28;20061;-60
2023/07/10 08:33:31;;;;;;;9.32;2.03;;;20.30;99.90;;;;;;4682603;28;10000281;-59
2023/07/10 08:36:02;;;;;;;7.65;2.08;;;20.40;99.90;;;;;;5039783;28;20049;-60
2023/07/10 08:38:30;;;;;;;6.32;1.83;;;20.50;99.90;;;;;;5043455;28;20052;-60
2023/07/10 08:41:00;;;;;;;9.77;1.80;;;20.60;99.90;;;;;;5041373;28;20099;-60
2023/07/10 08:43:34;;;;;;;8.35;1.83;;;20.70;99.90;;;;;;5018009;28;20127;-60
2023/07/10 08:46:11;;;;;;;8.18;1.30;;;20.80;99.90;;;;;;5038791;28;20041;-59
2023/07/10 08:48:42;;;;;;;13.63;1.88;;;20.90;99.90;;;;;;5025899;28;20063;-59
2023/07/10 08:51:21;;;;;;;11.05;1.90;;;20.90;99.90;;;;;;5005040;28;20049;-61
2023/07/10 08:54:12;;;;;;;6.85;1.63;;;20.80;99.90;;;;;;5043718;28;20134;-60
2023/07/10 08:56:48;;;;;;;3.40;1.70;;;20.70;99.90;;;;;;5039783;28;20049;-59
2023/07/10 08:59:37;;;;;;;10.40;2.10;;;20.70;99.90;;;;;;5033293;28;20534;-59
2023/07/10 09:02:27;;;;;;;8.27;1.70;;;20.80;99.90;;;;;;5031716;28;20049;-60
2023/07/10 09:04:54;;;;;;;6.30;2.00;;;21.00;99.90;;;;;;5010196;28;20124;-60
2023/07/10 09:07:21;;;;;;;9.48;2.45;;;21.10;99.90;;;;;;5029651;28;20247;-60
2023/07/10 09:09:59;;;;;;;9.85;2.13;;;21.10;99.90;;;;;;5028721;28;20042;-59
2023/07/10 09:12:37;;;;;;;8.48;1.77;;;21.10;99.90;;;;;;5005084;28;20081;-61
2023/07/10 09:15:19;;;;;;;19.50;3.13;;;21.10;99.90;;;;;;5028081;28;20045;-59
2023/07/10 09:18:07;;;;;;;12.38;1.67;;;21.20;99.90;;;;;;5029763;28;20040;-60
2023/07/10 09:20:34;;;;;;;7.10;1.80;;;21.10;99.90;;;;;;5031494;28;20045;-59
2023/07/10 09:23:11;;;;;;;7.32;1.83;;;21.10;99.90;;;;;;5046651;28;20124;-59
2023/07/10 09:25:38;;;;;;;13.32;2.85;;;21.10;99.90;;;;;;4999173;28;20499;-60
2023/07/10 09:28:05;;;;;;;8.63;1.95;;;21.30;99.90;;;;;;5042241;28;20488;-60
2023/07/10 09:30:57;;;;;;;8.52;1.50;;;21.50;99.90;;;;;;5045621;28;20053;-60
2023/07/10 09:33:24;;;;;;;10.13;2.88;;;21.60;99.90;;;;;;5044535;28;20049;-60
2023/07/10 09:35:51;;;;;;;10.50;1.65;;;21.60;99.90;;;;;;5012845;28;20049;-59
2023/07/10 09:38:18;;;;;;;4.78;2.17;;;21.70;99.90;;;;;;5035564;28;20100;-60
2023/07/10 09:40:47;;;;;;;11.30;2.90;;;21.80;99.90;;;;;;5044599;28;20043;-59
2023/07/10 09:43:19;;;;;;;9.52;1.88;;;21.90;99.90;;;;;;5020622;28;20508;-60
2023/07/10 09:45:50;;;;;;;5.95;1.60;;;21.90;99.90;;;;;;5043452;28;20408;-60
2023/07/10 09:48:20;;;;;;;8.27;1.65;;;22.00;99.90;;;;;;5038251;28;20592;-60
2023/07/10 09:50:49;;;;;;;10.13;1.90;;;22.10;99.90;;;;;;5038374;28;20045;-60
2023/07/10 09:53:30;;;;;;;8.18;2.55;;;22.00;99.90;;;;;;5030313;28;20048;-61
2023/07/10 09:55:57;;;;;;;11.48;2.10;;;22.00;99.90;;;;;;5033329;28;20064;-60
2023/07/10 09:58:24;;;;;;;7.53;1.65;;;22.20;99.90;;;;;;5037768;28;20038;-60
2023/07/10 10:00:51;;;;;;;8.45;1.75;;;22.30;99.90;;;;;;5040915;28;20045;-61
2023/07/10 10:03:26;;;;;;;9.23;2.70;;;22.40;99.90;;;;;;5036843;28;20049;-59
2023/07/10 10:05:56;;;;;;;12.05;2.00;;;22.40;99.90;;;;;;5030385;28;20128;-60
2023/07/10 10:08:45;;;;;;;7.43;2.00;;;22.50;99.90;;;;;;5039308;28;20110;-59
2023/07/10 10:11:12;;;;;;;5.25;1.30;;;22.70;99.90;;;;;;5040830;28;20499;-60
2023/07/10 10:13:43;;;;;;;9.68;2.10;;;22.90;99.90;;;;;;5039096;28;20055;-60
2023/07/10 10:16:38;;;;;;;8.70;1.70;;;23.20;99.90;;;;;;5021100;28;20041;-60
2023/07/10 10:19:29;;;;;;;6.28;1.33;;;23.60;99.90;;;;;;5037193;28;20053;-61
2023/07/10 10:21:56;;;;;;;6.88;1.40;;;23.50;99.90;;;;;;5030492;28;20048;-59
2023/07/10 10:24:23;;;;;;;8.63;1.60;;;23.50;99.90;;;;;;5038485;28;20315;-60
2023/07/10 10:27:00;;;;;;;5.13;1.48;;;23.60;99.90;;;;;;5026661;28;20041;-60
2023/07/10 10:29:30;;;;;;;7.63;2.00;;;23.50;99.90;;;;;;5037251;28;20049;-60
2023/07/10 10:32:03;;;;;;;7.97;1.60;;;23.30;99.90;;;;;;5034777;28;20045;-59
2023/07/10 10:34:38;;;;;;;4.45;1.38;;;23.40;99.90;;;;;;5020194;28;20514;-61
2023/07/10 10:37:29;;;;;;;10.52;1.75;;;23.40;99.90;;;;;;5038741;28;20049;-60
2023/07/10 10:40:03;;;;;;;5.97;1.40;;;23.60;99.90;;;;;;5030129;28;20049;-63
2023/07/10 10:42:47;;;;;;;9.93;1.50;;;24.00;99.90;;;;;;5032579;28;20496;-59
2023/07/10 10:45:32;;;;;;;7.88;2.50;;;23.90;99.90;;;;;;5044983;28;20053;-60
2023/07/10 10:48:17;;;;;;;7.03;1.90;;;23.90;99.90;;;;;;4657798;28;10000683;-60
2023/07/10 10:51:10;;;;;;;8.95;2.38;;;24.30;99.90;;;;;;5037042;28;20572;-60
2023/07/10 10:54:09;;;;;;;6.65;1.70;;;24.70;98.50;;;;;;5015483;28;20503;-60
2023/07/10 10:57:21;;;;;;;9.77;2.00;;;25.00;98.80;;;;;;5013652;28;20484;-61
2023/07/10 11:00:00;;;;;;;5.00;1.83;;;24.60;98.90;;;;;;5020587;28;20452;-61
2023/07/10 11:02:41;;;;;;;10.15;2.47;;;24.40;98.50;;;;;;5029243;28;20041;-60
2023/07/10 11:05:30;;;;;;;13.65;1.92;;;24.20;99.00;;;;;;5022045;28;20053;-59
2023/07/10 11:07:57;;;;;;;7.40;1.75;;;24.00;99.00;;;;;;5030330;28;20045;-60
2023/07/10 11:10:36;;;;;;;4.55;1.20;;;24.00;99.90;;;;;;5033732;28;20048;-60
2023/07/10 11:13:13;;;;;;;3.40;1.10;;;23.90;99.20;;;;;;5009652;28;20045;-60
2023/07/10 11:15:40;;;;;;;9.63;1.88;;;23.90;98.80;;;;;;5023617;28;20103;-61
2023/07/10 11:18:08;;;;;;;10.63;2.40;;;24.00;99.10;;;;;;5016208;28;20131;-60
2023/07/10 11:20:36;;;;;;;11.30;1.63;;;23.90;99.10;;;;;;5006314;28;20534;-60
2023/07/10 11:23:04;;;;;;;8.98;1.77;;;23.90;99.80;;;;;;5042507;28;20076;-60
2023/07/10 11:25:39;;;;;;;8.75;1.75;;;24.00;99.00;;;;;;5040925;28;20211;-61
2023/07/10 11:28:25;;;;;;;12.90;1.42;;;23.80;98.70;;;;;;5029600;28;20041;-60
2023/07/10 11:31:23;;;;;;;6.22;1.83;;;23.90;99.00;;;;;;5038431;28;20053;-62
2023/07/10 11:33:52;;;;;;;10.02;2.60;;;23.90;99.10;;;;;;5039212;28;20133;-60
2023/07/10 11:36:25;;;;;;;6.90;1.30;;;24.10;99.70;;;;;;5012177;28;20518;-59
2023/07/10 11:39:09;;;;;;;7.00;1.30;;;24.20;98.90;;;;;;5029941;28;20061;-59
2023/07/10 11:41:45;;;;;;;14.95;1.98;;;24.20;98.10;;;;;;5034748;28;20049;-61
2023/07/10 11:44:11;;;;;;;6.55;1.35;;;24.00;98.60;;;;;;5035546;28;20057;-60
2023/07/10 11:46:53;;;;;;;5.78;1.60;;;23.90;99.20;;;;;;5033920;28;20049;-61
2023/07/10 11:49:20;;;;;;;5.95;1.73;;;24.00;98.20;;;;;;5035738;28;20053;-61
2023/07/10 11:52:11;;;;;;;4.72;1.60;;;24.00;99.00;;;;;;5033863;28;20061;-63
2023/07/10 11:54:47;;;;;;;7.60;2.22;;;23.90;97.80;;;;;;5034186;28;20057;-60
2023/07/10 11:57:28;;;;;;;7.82;1.60;;;24.00;99.00;;;;;;5036256;28;20645;-60
2023/07/10 12:00:06;;;;;;;5.75;1.20;;;24.00;98.10;;;;;;5012244;28;20177;-60
2023/07/10 12:02:46;;;;;;;4.45;1.30;;;24.00;98.10;;;;;;5018410;28;20481;-61
2023/07/10 12:05:16;;;;;;;5.57;1.52;;;23.80;97.60;;;;;;5030045;28;20056;-59
2023/07/10 12:08:05;;;;;;;4.55;1.20;;;23.90;98.00;;;;;;5035779;28;20053;-59
2023/07/10 12:10:41;;;;;;;8.07;2.22;;;23.90;98.10;;;;;;5030967;28;20057;-60
2023/07/10 12:13:20;;;;;;;5.97;1.30;;;24.10;97.50;;;;;;5044690;28;20049;-59
2023/07/10 12:15:48;;;;;;;5.07;1.20;;;24.10;96.80;;;;;;5037459;28;20048;-60
2023/07/10 12:18:19;;;;;;;7.70;1.75;;;24.30;97.40;;;;;;5034347;28;20346;-60
2023/07/10 12:20:51;;;;;;;4.55;1.45;;;24.40;97.10;;;;;;5044614;28;20057;-60
2023/07/10 12:23:18;;;;;;;8.20;1.30;;;24.50;97.30;;;;;;5036218;28;20049;-60
2023/07/10 12:25:49;;;;;;;5.65;1.27;;;24.60;97.20;;;;;;5033400;28;20052;-60
2023/07/10 12:28:17;;;;;;;4.30;1.75;;;24.60;97.20;;;;;;5036178;28;20045;-60
2023/07/10 12:30:54;;;;;;;7.80;1.52;;;24.60;97.30;;;;;;5022858;28;20065;-60
2023/07/10 12:33:33;;;;;;;14.23;1.63;;;24.60;96.70;;;;;;5035226;28;20053;-60
2023/07/10 12:36:21;;;;;;;8.18;2.00;;;24.40;96.40;;;;;;5044912;28;20048;-60
2023/07/10 12:38:48;;;;;;;8.02;1.98;;;24.40;96.80;;;;;;5009871;28;20057;-60
2023/07/10 12:41:18;;;;;;;7.97;1.65;;;24.60;95.70;;;;;;5008444;28;20279;-60
2023/07/10 12:43:50;;;;;;;8.30;1.55;;;24.70;95.80;;;;;;5037126;28;20048;-60
2023/07/10 12:46:22;;;;;;;8.40;2.20;;;24.90;95.80;;;;;;5037767;28;20382;-59
2023/07/10 12:48:52;;;;;;;3.38;1.27;;;24.60;95.90;;;;;;5004205;28;20055;-60
2023/07/10 12:51:33;;;;;;;4.13;1.15;;;24.60;95.90;;;;;;5003077;28;20053;-59
2023/07/10 12:54:01;;;;;;;7.15;1.33;;;24.60;95.30;;;;;;5018324;28;20071;-59
2023/07/10 12:56:35;;;;;;;12.93;2.67;;;24.80;95.00;;;;;;5028009;28;20575;-59
2023/07/10 12:59:18;;;;;;;14.40;1.80;;;24.90;94.10;;;;;;5039388;28;20159;-60